Time;durP1;ratioP1;P1;durP2;ratioP2;P2;SDS_P1;SDS_P2;PMS_P1;PMS_P2;Temp;Humidity;BMP_temperature;BMP_pressure;BME280_temperature;BME280_humidity;BME280_pressure;Samples;Min_cycle;Max_cycle;Signal;HPM_P1;HPM_P2
2023/01/10 00:00:35;;;;;;;7.28;5.03;;;;;;;5.40;87.62;98132.38;5060274;28;20477;-80
2023/01/10 00:03:07;;;;;;;11.93;6.18;;;;;;;5.41;86.98;98131.34;5046809;28;20040;-80
2023/01/10 00:05:34;;;;;;;9.18;5.28;;;;;;;5.37;86.82;98138.16;5029016;28;20082;-80
2023/01/10 00:08:01;;;;;;;8.60;6.53;;;;;;;5.14;88.12;98135.53;5055350;28;20132;-80
2023/01/10 00:10:27;;;;;;;9.00;5.95;;;;;;;5.40;86.69;98144.81;5069509;28;20033;-80
2023/01/10 00:15:37;;;;;;;9.15;5.93;;;;;;;5.10;87.85;98161.63;5058102;28;20075;-80
2023/01/10 00:18:03;;;;;;;10.65;6.30;;;;;;;5.13;87.42;98155.09;5043863;28;20358;-80
2023/01/10 00:20:28;;;;;;;10.48;6.40;;;;;;;5.20;87.98;98174.25;5025804;28;20079;-80
2023/01/10 00:22:54;;;;;;;14.73;6.80;;;;;;;5.11;87.34;98167.75;5061235;28;20263;-80
2023/01/10 00:25:20;;;;;;;7.30;6.32;;;;;;;5.24;86.89;98170.94;5054991;28;20469;-80
2023/01/10 00:27:56;;;;;;;9.70;6.25;;;;;;;5.18;87.57;98178.97;5044601;28;20147;-80
2023/01/10 00:30:22;;;;;;;12.32;8.25;;;;;;;4.80;88.78;98186.56;5064054;28;20033;-80
2023/01/10 00:32:47;;;;;;;9.93;6.45;;;;;;;4.98;88.69;98189.13;5073217;28;20055;-80
2023/01/10 00:35:12;;;;;;;9.27;6.43;;;;;;;5.26;89.33;98197.19;5061126;28;20445;-80
2023/01/10 00:37:39;;;;;;;8.40;6.32;;;;;;;5.28;87.55;98190.63;5054698;28;20036;-80
2023/01/10 00:40:07;;;;;;;9.70;6.82;;;;;;;5.07;88.13;98187.72;5060086;28;20067;-81
2023/01/10 00:45:18;;;;;;;7.32;6.07;;;;;;;5.29;89.05;98202.81;5057179;28;20067;-80
2023/01/10 00:47:44;;;;;;;12.10;7.18;;;;;;;5.27;88.73;98198.78;5057160;28;20061;-80
2023/01/10 00:50:13;;;;;;;7.10;5.47;;;;;;;5.53;86.93;98203.59;5040539;28;20547;-80
2023/01/10 00:52:38;;;;;;;9.52;6.03;;;;;;;5.62;87.31;98220.72;5039012;28;20457;-80
2023/01/10 00:55:04;;;;;;;8.98;5.63;;;;;;;5.76;85.70;98223.94;5032502;28;20036;-80
2023/01/10 00:57:29;;;;;;;9.45;6.65;;;;;;;5.01;88.70;98220.38;5030516;28;20025;-80
2023/01/10 00:59:55;;;;;;;11.38;6.03;;;;;;;5.47;88.08;98225.69;5028250;28;20377;-80
2023/01/10 01:02:20;;;;;;;12.05;5.35;;;;;;;5.10;89.49;98232.22;5018319;28;20690;-80
2023/01/10 01:04:45;;;;;;;9.00;5.90;;;;;;;5.42;87.28;98245.97;5043948;28;20392;-80
2023/01/10 01:07:11;;;;;;;7.50;6.30;;;;;;;5.33;88.14;98232.25;5031310;28;20025;-80
2023/01/10 01:10:25;;;;;;;8.32;5.47;;;;;;;5.48;87.37;98256.44;5022754;28;20033;-80
2023/01/10 01:12:21;;;;;;;7.03;5.07;;;;;;;5.52;87.91;98270.81;5047719;28;20041;-80
2023/01/10 01:14:47;;;;;;;10.80;7.35;;;;;;;5.40;87.80;98269.16;5057625;28;20039;-80
2023/01/10 01:17:12;;;;;;;8.93;5.05;;;;;;;5.56;87.22;98273.78;5039142;28;20094;-80
2023/01/10 01:19:37;;;;;;;9.38;5.85;;;;;;;5.48;87.64;98274.97;5030640;28;20025;-80
2023/01/10 01:22:03;;;;;;;6.30;4.20;;;;;;;5.43;88.02;98290.72;5029847;28;20035;-80
2023/01/10 01:24:28;;;;;;;13.20;6.70;;;;;;;5.36;88.11;98292.66;5042816;28;20032;-80
2023/01/10 01:26:53;;;;;;;6.22;4.90;;;;;;;5.40;88.19;98307.03;5020835;28;20025;-80
2023/01/10 01:29:19;;;;;;;7.65;5.20;;;;;;;5.28;88.53;98307.03;5047077;28;20124;-80
2023/01/10 01:31:44;;;;;;;9.40;5.05;;;;;;;5.39;87.83;98307.28;5062085;28;20032;-80
2023/01/10 01:34:10;;;;;;;6.53;5.20;;;;;;;5.27;88.08;98310.69;5045223;28;20032;-80
2023/01/10 01:36:35;;;;;;;6.70;4.82;;;;;;;5.30;88.07;98331.44;5030432;28;20476;-80
2023/01/10 01:39:00;;;;;;;10.55;5.18;;;;;;;5.26;88.83;98317.00;5036350;28;20076;-80
2023/01/10 01:44:16;;;;;;;5.45;4.72;;;;;;;5.24;88.41;98336.81;5056910;28;20535;-80
2023/01/10 01:46:49;;;;;;;9.35;4.68;;;;;;;5.21;88.60;98350.47;5057341;28;20021;-80
2023/01/10 01:49:19;;;;;;;8.32;5.22;;;;;;;5.30;88.41;98336.72;5040085;28;20032;-80
2023/01/10 01:51:49;;;;;;;7.57;4.75;;;;;;;5.33;88.02;98335.44;5059885;28;20103;-80
2023/01/10 01:54:15;;;;;;;5.78;4.45;;;;;;;5.30;88.90;98357.06;5040832;28;20028;-80
2023/01/10 01:56:53;;;;;;;10.05;5.25;;;;;;;5.34;87.99;98358.22;5041330;28;20047;-80
2023/01/10 01:59:24;;;;;;;9.45;5.15;;;;;;;5.26;88.46;98363.84;5035761;28;20034;-80
2023/01/10 02:01:53;;;;;;;6.25;4.18;;;;;;;5.41;87.90;98376.66;5046604;28;20029;-80
2023/01/10 02:04:23;;;;;;;6.15;4.80;;;;;;;5.40;88.45;98359.94;5074908;28;20441;-80
2023/01/10 02:06:52;;;;;;;8.07;4.40;;;;;;;5.40;88.09;98375.84;5043827;28;20024;-80
2023/01/10 02:09:27;;;;;;;10.43;4.22;;;;;;;5.41;88.21;98385.41;5057411;28;20036;-80
2023/01/10 02:11:54;;;;;;;9.20;6.78;;;;;;;5.25;88.67;98386.03;5059201;28;20036;-79
2023/01/10 02:14:22;;;;;;;9.38;4.43;;;;;;;5.26;88.84;98391.09;5040982;28;20528;-80
2023/01/10 02:16:47;;;;;;;7.75;5.18;;;;;;;5.30;88.42;98376.41;5066217;28;20080;-80
2023/01/10 02:19:49;;;;;;;10.35;4.60;;;;;;;5.42;88.63;98391.50;5031975;28;20052;-80
2023/01/10 02:22:52;;;;;;;10.32;4.53;;;;;;;5.22;89.12;98402.38;5060718;28;20453;-80
2023/01/10 02:25:53;;;;;;;7.88;4.82;;;;;;;5.43;88.19;98407.16;5062258;28;20380;-80
2023/01/10 02:28:22;;;;;;;7.07;4.57;;;;;;;5.39;88.88;98403.34;5047967;28;20044;-80
2023/01/10 02:31:05;;;;;;;11.00;5.10;;;;;;;5.38;88.07;98406.19;5059541;28;20027;-80
2023/01/10 02:33:55;;;;;;;10.10;4.55;;;;;;;5.42;87.70;98412.69;5064611;28;20590;-80
2023/01/10 02:36:58;;;;;;;8.55;4.68;;;;;;;5.41;87.89;98411.03;5061059;28;20208;-80
2023/01/10 02:39:54;;;;;;;5.53;4.72;;;;;;;5.35;88.44;98415.41;5060460;28;20028;-79
2023/01/10 02:42:47;;;;;;;8.98;5.05;;;;;;;5.29;87.31;98403.06;5009054;28;20047;-80
2023/01/10 02:45:33;;;;;;;9.35;6.13;;;;;;;5.26;88.20;98427.34;5070744;28;20159;-80
2023/01/10 02:47:59;;;;;;;6.25;4.53;;;;;;;5.25;88.73;98429.19;5060073;28;20025;-80
2023/01/10 02:50:38;;;;;;;6.93;5.18;;;;;;;5.18;88.47;98428.44;5038762;28;20036;-81
2023/01/10 02:53:09;;;;;;;9.05;4.80;;;;;;;5.07;88.41;98442.44;5036582;28;20028;-81
2023/01/10 02:56:02;;;;;;;10.50;5.75;;;;;;;5.25;89.68;98454.81;5052106;28;20024;-81
2023/01/10 02:58:50;;;;;;;10.15;6.03;;;;;;;5.21;89.38;98458.94;5038619;28;20063;-82
2023/01/10 03:01:23;;;;;;;10.18;5.95;;;;;;;5.13;89.29;98456.63;5036326;28;20017;-81
2023/01/10 03:04:27;;;;;;;8.55;5.25;;;;;;;5.33;88.97;98468.53;5057585;28;20092;-81
2023/01/10 03:07:03;;;;;;;8.73;5.13;;;;;;;5.31;88.09;98464.50;5048313;28;20040;-81
2023/01/10 03:09:43;;;;;;;9.32;5.93;;;;;;;4.94;89.55;98473.50;5060161;28;20036;-81
2023/01/10 03:12:14;;;;;;;12.75;5.75;;;;;;;5.30;89.28;98484.06;5047670;28;20407;-81
2023/01/10 03:14:41;;;;;;;9.02;5.15;;;;;;;5.30;88.22;98473.47;5049907;28;20108;-80
2023/01/10 03:17:10;;;;;;;9.65;4.85;;;;;;;5.51;87.55;98483.56;5052160;28;20498;-80
2023/01/10 03:19:44;;;;;;;9.30;5.35;;;;;;;5.31;88.85;98486.47;5044285;28;20068;-81
2023/01/10 03:22:11;;;;;;;8.73;6.43;;;;;;;5.27;89.34;98479.22;5069615;28;20508;-81
2023/01/10 03:24:45;;;;;;;7.97;5.32;;;;;;;5.32;88.71;98477.53;5031271;28;20039;-80
2023/01/10 03:27:48;;;;;;;8.52;4.72;;;;;;;5.50;88.66;98495.22;5019832;28;20036;-81
2023/01/10 03:30:25;;;;;;;10.05;5.75;;;;;;;5.34;88.73;98501.09;5040258;28;20039;-81
2023/01/10 03:32:52;;;;;;;8.75;5.90;;;;;;;5.22;90.24;98514.28;5036017;28;20029;-80
2023/01/10 03:35:20;;;;;;;7.53;5.15;;;;;;;5.21;90.06;98507.38;5056483;28;20063;-80
2023/01/10 03:38:04;;;;;;;12.25;6.95;;;;;;;5.28;88.74;98515.22;5042808;28;20020;-80
2023/01/10 03:40:47;;;;;;;10.48;6.68;;;;;;;5.19;89.45;98513.91;5040127;28;20042;-80
2023/01/10 03:46:33;;;;;;;12.68;6.85;;;;;;;5.23;89.53;98528.31;5024796;28;20488;-80
2023/01/10 03:49:01;;;;;;;11.18;7.07;;;;;;;5.38;89.32;98534.03;5062486;28;20112;-80
2023/01/10 03:51:28;;;;;;;16.92;8.82;;;;;;;5.16;89.05;98538.97;5047995;28;20042;-80
2023/01/10 03:53:53;;;;;;;13.45;7.65;;;;;;;5.36;88.99;98535.28;5056583;28;20032;-80
2023/01/10 03:56:19;;;;;;;13.40;8.18;;;;;;;5.36;88.63;98536.09;5036721;28;20051;-80
2023/01/10 03:58:44;;;;;;;15.73;8.20;;;;;;;5.38;88.61;98554.38;5045296;28;20041;-80
2023/01/10 04:01:09;;;;;;;15.07;8.77;;;;;;;5.40;88.61;98550.50;5062399;28;20508;-80
2023/01/10 04:03:35;;;;;;;12.23;8.82;;;;;;;5.23;89.10;98547.66;5050174;28;20065;-80
2023/01/10 04:06:00;;;;;;;23.90;11.10;;;;;;;5.29;88.89;98569.75;5017216;28;20085;-79
2023/01/10 04:08:26;;;;;;;20.60;9.38;;;;;;;5.27;88.64;98554.09;5038601;28;20040;-79
2023/01/10 04:10:51;;;;;;;19.13;8.52;;;;;;;5.15;89.85;98549.78;5060929;28;20042;-80
2023/01/10 04:13:16;;;;;;;20.95;8.88;;;;;;;5.33;89.09;98574.38;5017536;28;20472;-80
2023/01/10 04:15:42;;;;;;;19.30;11.68;;;;;;;5.31;89.41;98580.91;5058993;28;20037;-80
2023/01/10 04:18:07;;;;;;;16.88;9.60;;;;;;;5.21;89.46;98576.16;5070031;28;20024;-80
2023/01/10 04:20:32;;;;;;;21.95;11.35;;;;;;;5.26;88.68;98596.66;5039097;28;20075;-80
2023/01/10 04:22:58;;;;;;;20.15;9.30;;;;;;;5.31;88.21;98589.66;5078288;28;20082;-80
2023/01/10 04:25:23;;;;;;;24.73;8.95;;;;;;;5.32;88.60;98609.00;5042720;28;20403;-80
2023/01/10 04:27:49;;;;;;;18.80;9.35;;;;;;;5.20;89.00;98605.47;5060399;28;20090;-80
2023/01/10 04:30:16;;;;;;;19.08;9.35;;;;;;;5.27;88.92;98616.78;5024935;28;20040;-80
2023/01/10 04:32:41;;;;;;;26.13;8.82;;;;;;;5.26;88.57;98626.56;5058189;28;20508;-80
2023/01/10 04:35:08;;;;;;;22.38;9.57;;;;;;;5.25;88.19;98624.97;5037056;28;20033;-80
2023/01/10 04:37:33;;;;;;;14.27;8.25;;;;;;;5.19;88.64;98622.38;5070731;28;20032;-80
2023/01/10 04:39:59;;;;;;;24.33;8.68;;;;;;;5.20;88.77;98623.97;5026933;28;20127;-80
2023/01/10 04:42:24;;;;;;;21.15;10.60;;;;;;;5.25;88.48;98640.84;5038862;28;20486;-80
2023/01/10 04:44:49;;;;;;;24.83;9.35;;;;;;;5.24;88.62;98643.72;5036839;28;20093;-79
2023/01/10 04:47:15;;;;;;;21.15;8.90;;;;;;;5.24;88.39;98649.78;5031287;28;20035;-80
2023/01/10 04:49:40;;;;;;;29.23;9.80;;;;;;;5.24;88.22;98654.28;5038354;28;20078;-80
2023/01/10 04:52:05;;;;;;;14.35;7.78;;;;;;;5.21;87.86;98657.34;5049245;28;20037;-80
2023/01/10 04:54:31;;;;;;;20.63;9.65;;;;;;;5.17;87.83;98653.53;5038749;28;20033;-80
2023/01/10 04:56:56;;;;;;;20.45;10.32;;;;;;;5.11;88.98;98662.34;5055981;28;20082;-80
2023/01/10 04:59:21;;;;;;;28.75;10.02;;;;;;;5.20;88.08;98661.03;5038011;28;20057;-80
2023/01/10 05:01:47;;;;;;;18.63;8.52;;;;;;;5.16;88.86;98658.00;5046562;28;20039;-80
2023/01/10 05:04:12;;;;;;;14.32;8.35;;;;;;;5.13;87.67;98660.31;5030303;28;20044;-80
2023/01/10 05:06:39;;;;;;;20.55;8.90;;;;;;;5.14;88.60;98678.59;5052560;28;20061;-80
2023/01/10 05:09:05;;;;;;;17.75;9.10;;;;;;;5.13;88.45;98689.41;5045888;28;20552;-80
2023/01/10 05:11:31;;;;;;;23.40;8.50;;;;;;;5.18;87.59;98682.41;5058596;28;20473;-80
2023/01/10 05:13:56;;;;;;;26.00;9.13;;;;;;;5.16;87.76;98689.75;5057313;28;20070;-80
2023/01/10 05:16:21;;;;;;;21.35;8.32;;;;;;;5.20;88.21;98695.41;5056753;28;20029;-80
2023/01/10 05:18:47;;;;;;;15.60;7.50;;;;;;;5.25;87.93;98683.16;5032233;28;20036;-80
2023/01/10 05:21:13;;;;;;;19.92;8.35;;;;;;;5.16;87.95;98705.63;5037342;28;20488;-80
2023/01/10 05:23:39;;;;;;;26.80;9.02;;;;;;;5.13;87.89;98699.97;5035174;28;20086;-80
2023/01/10 05:26:16;;;;;;;19.30;8.63;;;;;;;5.19;87.43;98699.09;5042148;28;20032;-80
2023/01/10 05:28:42;;;;;;;13.32;7.38;;;;;;;5.20;87.46;98706.00;5046604;28;20481;-80
2023/01/10 05:31:10;;;;;;;20.30;8.07;;;;;;;5.16;87.64;98692.41;5057323;28;20043;-80
2023/01/10 05:33:35;;;;;;;17.92;8.57;;;;;;;5.22;87.75;98693.38;5056441;28;20028;-80
2023/01/10 05:36:05;;;;;;;19.05;8.18;;;;;;;5.22;87.50;98698.69;5058589;28;20507;-80
2023/01/10 05:38:32;;;;;;;20.65;9.48;;;;;;;5.29;87.17;98707.34;5069713;28;20150;-80
2023/01/10 05:40:58;;;;;;;23.55;8.75;;;;;;;5.10;88.09;98706.50;5062128;28;20036;-80
2023/01/10 05:43:24;;;;;;;19.38;9.35;;;;;;;5.31;87.41;98714.03;5052573;28;20078;-80
2023/01/10 05:45:50;;;;;;;23.17;9.32;;;;;;;5.26;87.41;98705.16;5070257;28;20032;-80
2023/01/10 05:48:15;;;;;;;23.95;11.38;;;;;;;5.29;87.00;98710.00;5048745;28;20502;-80
2023/01/10 05:50:41;;;;;;;17.70;8.70;;;;;;;5.24;87.01;98712.50;5067579;28;20511;-80
2023/01/10 05:53:06;;;;;;;23.48;10.07;;;;;;;5.17;87.58;98714.38;5032370;28;20029;-80
2023/01/10 05:55:32;;;;;;;23.10;9.43;;;;;;;5.02;88.41;98732.41;5054257;28;20111;-80
2023/01/10 05:57:58;;;;;;;23.67;8.55;;;;;;;5.08;87.85;98728.91;5044349;28;20373;-80
2023/01/10 06:00:25;;;;;;;18.50;8.90;;;;;;;5.16;87.73;98745.31;5055492;28;20086;-80
2023/01/10 06:02:54;;;;;;;20.10;8.80;;;;;;;5.29;87.27;98742.56;5037538;28;20039;-80
2023/01/10 06:05:19;;;;;;;16.60;8.68;;;;;;;5.02;87.30;98743.00;5053624;28;20399;-80
2023/01/10 06:07:44;;;;;;;19.50;8.38;;;;;;;5.17;86.89;98764.66;5039603;28;20128;-80
2023/01/10 06:10:10;;;;;;;18.33;8.60;;;;;;;5.21;87.79;98766.66;5020531;28;20039;-80
2023/01/10 06:12:38;;;;;;;21.30;9.88;;;;;;;5.25;87.71;98772.31;5056093;28;20035;-80
2023/01/10 06:15:04;;;;;;;27.08;10.40;;;;;;;5.03;87.71;98773.69;5051958;28;20039;-80
2023/01/10 06:17:29;;;;;;;20.70;9.65;;;;;;;5.03;87.84;98779.81;5040083;28;20033;-80
2023/01/10 06:19:55;;;;;;;16.60;8.32;;;;;;;5.16;86.80;98776.25;5054919;28;20857;-80
2023/01/10 06:22:20;;;;;;;17.20;8.02;;;;;;;5.07;87.28;98790.75;5040482;28;20036;-80
2023/01/10 06:24:46;;;;;;;17.48;8.75;;;;;;;5.30;87.60;98799.75;5056538;28;20036;-80
2023/01/10 06:27:11;;;;;;;21.33;8.68;;;;;;;5.08;87.90;98795.03;5053365;28;20467;-80
2023/01/10 06:29:36;;;;;;;17.05;8.02;;;;;;;5.21;87.61;98794.94;5042601;28;20124;-80
2023/01/10 06:32:02;;;;;;;17.75;7.43;;;;;;;5.30;87.49;98806.88;5043685;28;20055;-80
2023/01/10 06:34:27;;;;;;;14.93;6.82;;;;;;;5.20;86.88;98810.00;5050093;28;20056;-80
2023/01/10 06:36:55;;;;;;;25.17;6.97;;;;;;;5.15;86.08;98816.97;5057187;28;20036;-80
2023/01/10 06:39:21;;;;;;;13.75;6.15;;;;;;;5.21;87.54;98830.16;5059564;28;20546;-80
2023/01/10 06:41:46;;;;;;;13.40;7.47;;;;;;;5.21;87.16;98818.75;5036665;28;20028;-80
2023/01/10 06:44:12;;;;;;;10.27;5.57;;;;;;;5.21;86.33;98816.91;5049846;28;21347;-80
2023/01/10 06:46:37;;;;;;;10.77;5.45;;;;;;;5.17;87.38;98820.19;5045751;28;20091;-80
2023/01/10 06:49:02;;;;;;;15.75;5.78;;;;;;;5.14;86.75;98828.56;5065149;28;20070;-80
2023/01/10 06:51:28;;;;;;;11.00;5.53;;;;;;;5.10;87.11;98836.13;5066230;28;20546;-80
2023/01/10 06:53:53;;;;;;;14.63;6.43;;;;;;;5.09;86.43;98838.97;5043754;28;20313;-80
2023/01/10 06:56:19;;;;;;;11.15;5.20;;;;;;;5.26;87.01;98854.09;5051663;28;20453;-80
2023/01/10 06:58:47;;;;;;;9.30;5.57;;;;;;;5.16;86.40;98866.19;5077731;28;20060;-80
2023/01/10 07:01:15;;;;;;;13.93;5.60;;;;;;;5.06;85.94;98858.75;5056102;28;20128;-80
2023/01/10 07:03:41;;;;;;;12.45;5.35;;;;;;;5.16;86.95;98853.78;5040514;28;20091;-80
2023/01/10 07:06:09;;;;;;;8.85;5.13;;;;;;;5.19;86.45;98857.84;5051843;28;20479;-80
2023/01/10 07:08:44;;;;;;;10.05;5.75;;;;;;;5.20;86.17;98867.38;5069504;28;20029;-80
2023/01/10 07:11:12;;;;;;;16.30;6.20;;;;;;;5.27;86.49;98876.91;5054657;28;20079;-80
2023/01/10 07:13:38;;;;;;;11.02;4.38;;;;;;;5.22;86.60;98873.28;5060830;28;20054;-80
2023/01/10 07:16:06;;;;;;;18.48;5.75;;;;;;;5.21;86.43;98874.31;5046218;28;20024;-80
2023/01/10 07:18:33;;;;;;;15.05;6.00;;;;;;;5.14;85.67;98884.13;5045352;28;20048;-80
2023/01/10 07:20:59;;;;;;;15.52;5.82;;;;;;;4.98;86.19;98885.41;5070935;28;20102;-80
2023/01/10 07:23:24;;;;;;;16.60;5.78;;;;;;;5.11;86.41;98880.06;5067043;28;20468;-80
2023/01/10 07:25:49;;;;;;;12.73;5.68;;;;;;;5.09;87.00;98882.09;5048924;28;20067;-80
2023/01/10 07:28:15;;;;;;;10.05;5.32;;;;;;;5.09;86.90;98894.50;5011186;28;20186;-80
2023/01/10 07:30:40;;;;;;;20.23;6.63;;;;;;;5.19;86.82;98902.81;5025332;28;20037;-80
2023/01/10 07:33:06;;;;;;;15.10;5.57;;;;;;;5.11;86.41;98897.78;5045287;28;20033;-80
2023/01/10 07:35:32;;;;;;;13.57;5.88;;;;;;;5.20;86.39;98902.59;5054131;28;20047;-79
2023/01/10 07:37:58;;;;;;;12.30;5.80;;;;;;;5.24;86.25;98905.63;5026873;28;20032;-80
2023/01/10 07:40:25;;;;;;;20.48;5.88;;;;;;;5.24;85.71;98897.72;5028545;28;20032;-80
2023/01/10 07:42:58;;;;;;;13.25;5.55;;;;;;;5.24;86.35;98908.28;5063198;28;20481;-80
2023/01/10 07:45:25;;;;;;;8.27;5.47;;;;;;;5.23;86.58;98926.00;5047010;28;20032;-80
2023/01/10 07:47:58;;;;;;;17.77;5.63;;;;;;;5.07;86.25;98902.66;5032325;28;20048;-80
2023/01/10 07:50:25;;;;;;;11.32;4.72;;;;;;;5.14;86.26;98927.25;5046190;28;20040;-82
2023/01/10 07:52:50;;;;;;;13.63;5.15;;;;;;;5.23;86.21;98927.81;5055546;28;20453;-81
2023/01/10 07:55:16;;;;;;;9.60;4.97;;;;;;;5.04;86.25;98915.50;5045129;28;20032;-81
2023/01/10 07:57:42;;;;;;;9.90;4.72;;;;;;;5.25;86.52;98931.06;5067362;28;20037;-81
2023/01/10 08:00:09;;;;;;;11.15;5.75;;;;;;;5.27;86.40;98935.13;5072734;28;20480;-81
2023/01/10 08:02:34;;;;;;;13.18;5.15;;;;;;;5.20;86.19;98923.75;5044425;28;20384;-81
2023/01/10 08:04:59;;;;;;;9.88;5.28;;;;;;;4.77;87.50;98924.56;5037530;28;20114;-82
2023/01/10 08:07:25;;;;;;;13.02;4.75;;;;;;;4.68;87.23;98923.19;5073254;28;20036;-81
2023/01/10 08:09:50;;;;;;;6.95;4.13;;;;;;;4.75;86.88;98908.09;5065974;28;20116;-81
2023/01/10 08:12:17;;;;;;;8.73;4.20;;;;;;;5.02;87.52;98941.38;5063474;28;20043;-81
2023/01/10 08:14:42;;;;;;;10.27;5.15;;;;;;;5.11;86.83;98938.25;5063900;28;20056;-81
2023/01/10 08:17:08;;;;;;;7.80;3.95;;;;;;;5.14;86.89;98945.78;5047117;28;20056;-81
2023/01/10 08:19:34;;;;;;;7.95;4.45;;;;;;;5.05;86.10;98939.09;5052157;28;20040;-81
2023/01/10 08:21:59;;;;;;;10.77;5.13;;;;;;;5.07;86.09;98946.81;5053240;28;20028;-81
2023/01/10 08:24:25;;;;;;;10.52;4.78;;;;;;;5.11;87.10;98955.97;5040057;28;20040;-81
2023/01/10 08:26:50;;;;;;;12.60;4.60;;;;;;;5.00;86.69;98964.56;5055068;28;20084;-82
2023/01/10 08:29:15;;;;;;;8.57;4.45;;;;;;;4.92;86.87;98968.25;5052072;28;20534;-82
2023/01/10 08:31:41;;;;;;;9.43;4.45;;;;;;;4.83;87.27;98958.09;5066222;28;20663;-82
2023/01/10 08:34:06;;;;;;;9.73;4.03;;;;;;;4.87;87.09;98975.19;5043914;28;20033;-82
2023/01/10 08:36:31;;;;;;;12.38;4.85;;;;;;;5.12;86.96;98962.88;5044719;28;20178;-82
2023/01/10 08:38:57;;;;;;;10.38;3.92;;;;;;;4.89;87.65;98962.56;5038586;28;20047;-82
2023/01/10 08:41:22;;;;;;;8.45;4.25;;;;;;;5.01;86.48;98956.41;5037110;28;20420;-82
2023/01/10 08:43:49;;;;;;;9.25;4.20;;;;;;;4.86;87.15;98970.91;5060497;28;20036;-81
2023/01/10 08:46:14;;;;;;;10.55;4.47;;;;;;;4.97;86.59;98978.19;5048869;28;20111;-81
2023/01/10 08:48:40;;;;;;;11.13;5.38;;;;;;;4.92;86.37;98999.16;5073325;28;20166;-82
2023/01/10 08:51:09;;;;;;;13.07;4.30;;;;;;;4.97;87.16;98991.44;5037165;28;20032;-81
2023/01/10 08:53:34;;;;;;;9.32;4.40;;;;;;;4.82;86.99;98959.97;5048294;28;20086;-81
2023/01/10 08:56:00;;;;;;;14.07;4.35;;;;;;;4.86;87.08;98934.72;5049599;28;20035;-81
2023/01/10 08:58:25;;;;;;;7.47;3.92;;;;;;;4.90;87.29;98948.31;5049571;28;20036;-81
2023/01/10 09:00:51;;;;;;;11.50;4.40;;;;;;;5.01;86.81;98971.47;5034368;28;20104;-81
2023/01/10 09:03:17;;;;;;;9.90;4.57;;;;;;;5.02;86.63;98976.53;5049098;28;20043;-82
2023/01/10 09:05:43;;;;;;;12.80;4.82;;;;;;;4.88;86.94;98972.34;5064285;28;20150;-81
2023/01/10 09:08:08;;;;;;;7.78;4.35;;;;;;;5.01;86.26;98992.63;5056019;28;20447;-81
2023/01/10 09:10:34;;;;;;;9.48;4.97;;;;;;;4.96;86.40;98979.22;5059297;28;20032;-81
2023/01/10 09:13:00;;;;;;;11.70;6.10;;;;;;;4.70;86.96;98969.53;5070036;28;20031;-81
2023/01/10 09:15:32;;;;;;;14.02;5.03;;;;;;;4.90;85.97;98987.97;5064243;28;20392;-81
2023/01/10 09:18:04;;;;;;;13.48;4.55;;;;;;;4.93;86.81;99000.81;5048205;28;20040;-81
2023/01/10 09:20:31;;;;;;;15.75;5.40;;;;;;;4.85;87.69;99006.34;5089685;28;20476;-81
2023/01/10 09:22:57;;;;;;;16.80;6.35;;;;;;;4.88;87.33;99009.34;5043238;28;20017;-81
2023/01/10 09:25:23;;;;;;;7.10;5.15;;;;;;;5.05;87.50;99015.81;5044280;28;20506;-81
2023/01/10 09:27:56;;;;;;;16.20;6.05;;;;;;;5.08;86.75;98998.72;5058230;28;20393;-81
2023/01/10 09:30:22;;;;;;;14.30;6.88;;;;;;;5.13;86.66;99012.13;5052272;28;20032;-81
2023/01/10 09:32:51;;;;;;;18.08;7.75;;;;;;;5.09;86.49;99013.53;5063398;28;20020;-81
2023/01/10 09:35:16;;;;;;;9.95;6.68;;;;;;;5.19;87.13;99027.16;5063015;28;20611;-81
2023/01/10 09:37:42;;;;;;;13.63;7.72;;;;;;;5.09;87.52;99011.72;5064569;28;20041;-81
2023/01/10 09:40:12;;;;;;;21.65;7.88;;;;;;;5.07;87.16;99023.53;5055760;28;20044;-81
2023/01/10 09:42:49;;;;;;;14.52;6.88;;;;;;;5.11;87.07;99017.59;5061393;28;20048;-81
2023/01/10 09:45:27;;;;;;;14.60;7.50;;;;;;;5.12;87.60;99029.00;5056997;28;20036;-81
2023/01/10 09:48:02;;;;;;;10.25;6.95;;;;;;;5.02;87.90;99021.50;5057648;28;20036;-81
2023/01/10 09:50:44;;;;;;;16.25;7.85;;;;;;;5.08;87.96;99030.47;5046309;28;20463;-81
2023/01/10 09:53:20;;;;;;;15.27;6.07;;;;;;;5.07;87.13;99020.88;5075352;28;20384;-81
2023/01/10 09:55:52;;;;;;;12.30;6.78;;;;;;;5.09;87.45;99027.59;5044917;28;20031;-81
2023/01/10 09:58:19;;;;;;;29.65;7.70;;;;;;;5.09;87.41;99032.06;5067324;28;20028;-81
2023/01/10 10:00:51;;;;;;;11.38;7.03;;;;;;;5.12;87.79;99029.84;5088043;28;20021;-81
2023/01/10 10:03:24;;;;;;;16.27;8.13;;;;;;;5.11;87.54;99038.00;5065029;28;20021;-81
2023/01/10 10:05:50;;;;;;;15.93;8.30;;;;;;;5.03;87.77;99033.72;5081921;28;20024;-81
2023/01/10 10:08:17;;;;;;;19.52;7.95;;;;;;;5.14;87.37;99042.84;5042423;28;20432;-81
2023/01/10 10:11:04;;;;;;;12.50;7.63;;;;;;;5.15;87.41;99047.13;5092013;28;20124;-81
2023/01/10 10:13:33;;;;;;;15.30;8.48;;;;;;;5.10;88.02;99047.75;5078131;28;20039;-81
2023/01/10 10:16:05;;;;;;;15.13;8.23;;;;;;;5.13;88.34;99046.53;5042408;28;20488;-81
2023/01/10 10:18:59;;;;;;;17.88;9.70;;;;;;;5.15;88.76;99047.94;5057229;28;20136;-81
2023/01/10 10:21:43;;;;;;;15.18;8.70;;;;;;;5.22;88.77;99055.88;5032498;28;20048;-81
2023/01/10 10:24:36;;;;;;;20.20;9.43;;;;;;;5.30;87.54;99056.44;5069203;28;20040;-81
2023/01/10 10:27:15;;;;;;;17.98;9.05;;;;;;;5.16;88.14;99044.25;5055101;28;20120;-81
2023/01/10 10:29:55;;;;;;;17.08;9.43;;;;;;;5.26;87.55;99043.84;5053841;28;20024;-81
2023/01/10 10:32:35;;;;;;;19.85;11.38;;;;;;;5.25;87.81;99032.44;5058001;28;20550;-81
2023/01/10 10:35:07;;;;;;;18.92;8.85;;;;;;;5.29;88.44;99044.22;5060535;28;20346;-81
2023/01/10 10:37:39;;;;;;;19.60;9.43;;;;;;;5.10;88.04;99017.81;5068865;28;20434;-81
2023/01/10 10:40:06;;;;;;;19.20;9.02;;;;;;;5.25;87.73;99043.00;5076520;28;20020;-81
2023/01/10 10:42:40;;;;;;;17.30;8.82;;;;;;;5.15;88.52;99040.00;5070356;28;20046;-81
2023/01/10 10:45:14;;;;;;;19.73;9.73;;;;;;;5.26;88.29;99033.25;5059441;28;20107;-81
2023/01/10 10:47:48;;;;;;;19.65;9.55;;;;;;;5.27;88.12;99042.78;5050703;28;20040;-81
2023/01/10 10:50:14;;;;;;;19.58;7.45;;;;;;;5.35;88.32;99041.75;5050190;28;20033;-80
2023/01/10 10:52:41;;;;;;;18.02;8.63;;;;;;;5.05;88.70;99025.56;5060723;28;20042;-80
2023/01/10 10:55:13;;;;;;;17.50;9.65;;;;;;;5.24;88.46;99040.59;5056628;28;20396;-81
2023/01/10 10:57:40;;;;;;;16.05;8.55;;;;;;;5.26;88.29;99043.84;5072877;28;20110;-81
2023/01/10 11:00:12;;;;;;;18.75;9.55;;;;;;;5.22;88.68;99051.34;5048193;28;20028;-80
2023/01/10 11:02:42;;;;;;;21.90;8.35;;;;;;;5.22;88.48;99038.13;5044137;28;20021;-81
2023/01/10 11:05:16;;;;;;;21.02;11.07;;;;;;;5.08;88.31;99025.97;5066959;28;20029;-81
2023/01/10 11:07:42;;;;;;;18.42;9.80;;;;;;;5.34;88.85;99051.53;5070438;28;20024;-81
2023/01/10 11:10:33;;;;;;;14.73;8.70;;;;;;;5.34;88.02;99051.53;5034856;28;20032;-81
2023/01/10 11:13:00;;;;;;;24.45;9.70;;;;;;;5.32;88.34;99048.28;5043523;28;20495;-80
2023/01/10 11:15:42;;;;;;;18.08;10.25;;;;;;;5.50;87.59;99048.41;5042615;28;20032;-81
2023/01/10 11:18:14;;;;;;;15.45;8.32;;;;;;;5.42;88.15;99055.78;5064555;28;20050;-81
2023/01/10 11:21:00;;;;;;;16.70;7.82;;;;;;;5.46;87.77;99065.72;5020031;28;20527;-80
2023/01/10 11:23:47;;;;;;;18.05;8.77;;;;;;;5.56;88.32;99065.28;5043915;28;20506;-81
2023/01/10 11:26:39;;;;;;;14.15;8.48;;;;;;;5.67;86.99;99064.59;5065041;28;20027;-81
2023/01/10 11:29:07;;;;;;;21.48;9.35;;;;;;;5.65;87.42;99064.84;5062094;28;20120;-81
2023/01/10 11:31:33;;;;;;;14.80;8.52;;;;;;;5.69;86.58;99062.56;5033438;28;20029;-81
2023/01/10 11:34:01;;;;;;;23.27;8.90;;;;;;;5.71;87.18;99071.94;5051411;28;20067;-81
2023/01/10 11:36:26;;;;;;;18.40;9.27;;;;;;;5.71;87.07;99053.38;5031498;28;20033;-81
2023/01/10 11:39:00;;;;;;;22.33;8.73;;;;;;;5.64;87.10;99041.19;5051795;28;20032;-81
2023/01/10 11:41:30;;;;;;;14.40;7.72;;;;;;;5.74;86.94;99065.41;5050583;28;20861;-81
2023/01/10 11:44:24;;;;;;;18.65;7.45;;;;;;;5.75;87.09;99057.22;5070267;28;20419;-81
2023/01/10 11:46:54;;;;;;;30.90;8.90;;;;;;;5.58;87.04;99044.69;5065518;28;20017;-81
2023/01/10 11:49:34;;;;;;;18.05;8.48;;;;;;;5.61;86.47;99053.03;5037760;28;20067;-81
2023/01/10 11:52:20;;;;;;;11.70;7.22;;;;;;;5.63;86.54;99037.75;5060904;28;20022;-81
2023/01/10 11:54:46;;;;;;;14.93;6.97;;;;;;;5.71;85.99;99042.78;5060274;28;20025;-81
2023/01/10 11:57:17;;;;;;;15.57;7.07;;;;;;;5.93;86.26;99056.56;5031945;28;20055;-81
2023/01/10 11:59:53;;;;;;;18.40;7.30;;;;;;;5.91;85.35;99055.94;5043315;28;20028;-81